Time;durP1;ratioP1;P1;durP2;ratioP2;P2;SDS_P1;SDS_P2;PMS_P1;PMS_P2;Temp;Humidity;BMP_temperature;BMP_pressure;BME280_temperature;BME280_humidity;BME280_pressure;Samples;Min_cycle;Max_cycle;Signal;HPM_P1;HPM_P2
2021/11/23 00:01:35;;;;;;;6.65;3.90;;;;;;;0.39;75.54;100449.45;1722644;83;21208;-72
2021/11/23 00:04:02;;;;;;;10.60;4.60;;;;;;;0.31;74.10;100453.70;1685506;85;21052;-72
2021/11/23 00:06:32;;;;;;;10.40;4.15;;;;;;;0.25;73.71;100457.52;1719594;83;21085;-72
2021/11/23 00:08:58;;;;;;;8.25;3.87;;;;;;;0.15;74.03;100453.53;1719451;83;21165;-72
2021/11/23 00:11:28;;;;;;;17.77;5.15;;;;;;;0.09;73.98;100449.61;1719304;83;21627;-70
2021/11/23 00:13:55;;;;;;;9.83;4.33;;;;;;;0.07;77.15;100450.02;1691206;83;21143;-72
2021/11/23 00:16:23;;;;;;;7.53;3.70;;;;;;;0.04;76.65;100449.96;1692874;84;21548;-71
2021/11/23 00:18:52;;;;;;;7.20;3.25;;;;;;;0.02;77.37;100457.27;1692966;84;21024;-71
2021/11/23 00:21:20;;;;;;;5.62;3.10;;;;;;;-0.01;80.28;100461.99;1661826;86;21125;-71
2021/11/23 00:23:47;;;;;;;6.65;2.90;;;;;;;-0.05;78.88;100462.80;1692955;84;21547;-71
2021/11/23 00:26:14;;;;;;;6.65;3.58;;;;;;;-0.16;77.34;100456.63;1692629;84;21130;-71
2021/11/23 00:28:41;;;;;;;10.08;3.92;;;;;;;-0.26;77.50;100461.70;1692760;84;21036;-71
2021/11/23 00:31:09;;;;;;;5.85;2.98;;;;;;;-0.34;77.18;100458.59;1692670;84;21566;-70
2021/11/23 00:33:42;;;;;;;4.95;2.75;;;;;;;-0.38;80.30;100465.44;1693034;84;21076;-69
2021/11/23 00:36:04;;;;;;;4.75;2.60;;;;;;;-0.44;79.31;100473.11;1692519;84;22177;-71
2021/11/23 00:38:31;;;;;;;5.30;2.98;;;;;;;-0.49;80.42;100473.48;1693001;84;21865;-71
2021/11/23 00:40:58;;;;;;;7.45;2.80;;;;;;;-0.56;81.36;100475.55;1692862;84;21092;-72
2021/11/23 00:43:25;;;;;;;10.40;2.87;;;;;;;-0.61;81.23;100472.89;1693175;84;21163;-72
2021/11/23 00:45:51;;;;;;;8.83;2.42;;;;;;;-0.66;81.48;100478.00;1693147;84;21041;-73
2021/11/23 00:48:18;;;;;;;5.10;3.10;;;;;;;-0.73;81.36;100481.35;1693439;84;21068;-73
2021/11/23 00:50:49;;;;;;;6.70;2.77;;;;;;;-0.75;82.37;100480.45;1693017;84;21342;-72
2021/11/23 00:53:13;;;;;;;7.15;3.15;;;;;;;-0.83;82.31;100486.36;1693034;84;21472;-72
2021/11/23 00:55:40;;;;;;;5.35;2.90;;;;;;;-0.88;81.87;100479.39;1689326;84;21050;-72
2021/11/23 00:58:07;;;;;;;6.37;3.10;;;;;;;-0.94;81.75;100481.05;1720121;83;21064;-72
2021/11/23 01:00:33;;;;;;;5.12;2.92;;;;;;;-1.04;81.16;100480.44;1691704;83;21060;-69
2021/11/23 01:03:00;;;;;;;8.25;3.37;;;;;;;-1.14;80.90;100489.34;1720356;81;21072;-69
2021/11/23 01:05:27;;;;;;;6.92;3.60;;;;;;;-1.20;81.21;100491.81;1720060;83;21566;-70
2021/11/23 01:07:55;;;;;;;9.05;3.30;;;;;;;-1.30;81.13;100491.22;1719871;83;21091;-70
2021/11/23 01:10:22;;;;;;;6.80;3.00;;;;;;;-1.28;82.53;100493.41;1719784;83;21052;-69
2021/11/23 01:12:50;;;;;;;11.68;3.00;;;;;;;-1.35;82.20;100492.87;1738497;82;21631;-70
2021/11/23 01:15:18;;;;;;;6.60;3.40;;;;;;;-1.42;81.78;100492.31;1742130;82;21077;-71
2021/11/23 01:17:47;;;;;;;7.80;3.95;;;;;;;-1.50;81.72;100499.48;1744845;82;21076;-73
2021/11/23 01:20:14;;;;;;;12.28;4.62;;;;;;;-1.58;81.77;100501.08;1749895;82;21594;-72
2021/11/23 01:22:42;;;;;;;11.57;6.15;;;;;;;-1.65;82.03;100505.69;1749544;82;21579;-72
2021/11/23 01:25:09;;;;;;;11.15;5.22;;;;;;;-1.72;82.91;100507.70;1746235;82;21634;-71
2021/11/23 01:27:36;;;;;;;11.93;5.53;;;;;;;-1.79;82.97;100501.98;1719755;83;21897;-71
2021/11/23 01:30:05;;;;;;;14.47;6.15;;;;;;;-1.84;83.22;100502.28;1719608;83;21687;-72
2021/11/23 01:32:32;;;;;;;12.53;5.67;;;;;;;-1.91;83.35;100502.19;1719713;83;21027;-72
2021/11/23 01:34:59;;;;;;;10.50;5.22;;;;;;;-1.95;83.48;100509.84;1719802;83;21080;-71
2021/11/23 01:37:25;;;;;;;12.05;4.95;;;;;;;-1.99;84.08;100503.73;1719752;83;21044;-70
2021/11/23 01:39:53;;;;;;;10.20;5.30;;;;;;;-2.02;84.03;100504.11;1719974;83;21516;-71
2021/11/23 01:42:20;;;;;;;8.18;4.10;;;;;;;-2.05;84.68;100507.47;1719886;83;21599;-72
2021/11/23 01:44:46;;;;;;;9.60;3.70;;;;;;;-2.06;85.03;100509.62;1719784;83;21029;-71
2021/11/23 01:47:13;;;;;;;6.92;3.30;;;;;;;-2.06;85.24;100513.48;1719532;83;21119;-70
2021/11/23 01:49:40;;;;;;;6.37;3.60;;;;;;;-2.07;85.41;100514.34;1719834;83;21107;-71
2021/11/23 01:52:06;;;;;;;8.65;3.85;;;;;;;-2.11;85.19;100515.11;1719592;83;21111;-70
2021/11/23 01:54:34;;;;;;;7.15;3.10;;;;;;;-2.12;85.51;100506.91;1719642;83;21028;-71
2021/11/23 01:57:02;;;;;;;8.95;2.90;;;;;;;-2.15;85.70;100512.02;1712710;83;21590;-70
2021/11/23 01:59:29;;;;;;;8.88;3.75;;;;;;;-2.19;85.43;100506.33;1712133;83;22119;-70
2021/11/23 02:01:56;;;;;;;4.33;2.83;;;;;;;-2.20;85.85;100509.77;1712006;83;21012;-71
2021/11/23 02:04:23;;;;;;;8.43;3.30;;;;;;;-2.24;85.73;100510.53;1712007;83;21536;-71
2021/11/23 02:06:49;;;;;;;6.40;3.30;;;;;;;-2.27;85.72;100505.31;1712003;83;22166;-70
2021/11/23 02:09:16;;;;;;;8.18;3.40;;;;;;;-2.26;86.54;100508.34;1711850;83;21551;-72
2021/11/23 02:11:43;;;;;;;8.55;3.58;;;;;;;-2.28;86.57;100507.00;1712012;83;21571;-71
2021/11/23 02:14:11;;;;;;;6.00;2.98;;;;;;;-2.26;86.92;100509.62;1712333;83;21057;-72
2021/11/23 02:16:37;;;;;;;10.60;3.58;;;;;;;-2.29;87.49;100509.57;1712221;83;21114;-72
2021/11/23 02:19:05;;;;;;;9.68;3.90;;;;;;;-2.26;88.17;100511.78;1712353;83;21068;-73
2021/11/23 02:21:32;;;;;;;3.92;2.50;;;;;;;-2.32;88.37;100516.41;1712372;83;21048;-72
2021/11/23 02:24:00;;;;;;;10.82;4.28;;;;;;;-2.35;88.09;100515.45;1712255;83;21052;-72
2021/11/23 02:26:29;;;;;;;7.12;3.67;;;;;;;-2.28;90.50;100513.88;1712124;83;21072;-73
2021/11/23 02:28:56;;;;;;;7.67;3.42;;;;;;;-2.30;90.18;100518.13;1712225;83;21595;-71
2021/11/23 02:31:23;;;;;;;8.40;3.47;;;;;;;-2.35;89.37;100512.88;1711947;83;21527;-71
2021/11/23 02:33:50;;;;;;;6.83;3.35;;;;;;;-2.40;89.15;100509.33;1711948;83;21564;-72
2021/11/23 02:36:16;;;;;;;9.13;3.52;;;;;;;-2.46;88.84;100513.06;1712391;83;21587;-73
2021/11/23 02:38:48;;;;;;;5.75;3.47;;;;;;;-2.50;88.68;100512.14;1712350;83;21063;-74
2021/11/23 02:41:14;;;;;;;10.68;3.30;;;;;;;-2.54;88.42;100507.74;1712221;83;22027;-74
2021/11/23 02:43:41;;;;;;;9.08;3.80;;;;;;;-2.59;88.17;100507.64;1712084;83;21087;-72
2021/11/23 02:46:09;;;;;;;5.92;3.40;;;;;;;-2.60;88.69;100508.89;1712353;83;21532;-71
2021/11/23 02:48:37;;;;;;;9.40;3.08;;;;;;;-2.63;89.52;100509.69;1711953;83;21040;-72
2021/11/23 02:51:15;;;;;;;10.75;3.95;;;;;;;-2.54;90.96;100506.45;1712763;83;21077;-71
2021/11/23 02:53:45;;;;;;;8.20;3.35;;;;;;;-2.56;90.74;100509.41;1711938;83;21093;-72
2021/11/23 02:56:12;;;;;;;7.92;3.75;;;;;;;-2.59;90.25;100513.22;1715114;83;21666;-72
2021/11/23 02:58:40;;;;;;;8.10;4.12;;;;;;;-2.59;90.51;100510.64;1719865;83;21586;-71
2021/11/23 03:01:09;;;;;;;8.83;3.42;;;;;;;-2.61;90.63;100514.89;1719588;83;21061;-70
2021/11/23 03:03:36;;;;;;;8.40;3.70;;;;;;;-2.65;90.37;100511.78;1719566;83;21096;-71
2021/11/23 03:06:03;;;;;;;9.03;3.67;;;;;;;-2.66;90.38;100519.08;1691638;83;22260;-71
2021/11/23 03:08:31;;;;;;;6.17;3.10;;;;;;;-2.72;90.37;100515.93;1719542;83;21571;-71
2021/11/23 03:10:58;;;;;;;6.85;3.35;;;;;;;-2.72;90.89;100518.93;1694813;83;21540;-72
2021/11/23 03:13:24;;;;;;;6.85;3.05;;;;;;;-2.77;90.75;100519.69;1684924;85;21046;-72
2021/11/23 03:15:51;;;;;;;10.60;4.35;;;;;;;-2.84;90.53;100515.23;1685059;85;21072;-71
2021/11/23 03:18:19;;;;;;;7.35;3.22;;;;;;;-2.84;91.29;100524.25;1684914;85;21761;-72
2021/11/23 03:20:45;;;;;;;10.40;4.12;;;;;;;-2.86;91.78;100521.19;1719768;82;21092;-72
2021/11/23 03:23:12;;;;;;;10.03;3.67;;;;;;;-2.90;92.05;100520.23;1719736;83;21066;-72
2021/11/23 03:25:39;;;;;;;10.20;3.20;;;;;;;-2.95;91.89;100524.41;1719631;83;21041;-71
2021/11/23 03:28:06;;;;;;;8.68;4.00;;;;;;;-3.02;91.80;100525.10;1719538;82;22156;-72
2021/11/23 03:30:33;;;;;;;10.38;3.85;;;;;;;-3.00;93.41;100524.73;1684686;85;22006;-72
2021/11/23 03:33:01;;;;;;;6.22;3.02;;;;;;;-3.04;93.94;100520.33;1719520;83;21549;-71
2021/11/23 03:35:29;;;;;;;7.40;3.72;;;;;;;-3.08;94.02;100519.78;1719913;83;21659;-71
2021/11/23 03:37:58;;;;;;;4.60;2.42;;;;;;;-3.12;94.35;100530.88;1684511;85;21049;-71
2021/11/23 03:40:27;;;;;;;7.78;3.95;;;;;;;-3.16;94.53;100525.63;1719661;83;21640;-73
2021/11/23 03:42:55;;;;;;;7.50;3.52;;;;;;;-3.15;95.27;100522.66;1719794;83;21541;-74
2021/11/23 03:45:23;;;;;;;5.58;2.90;;;;;;;-3.16;96.16;100520.48;1719752;83;21057;-72
2021/11/23 03:47:50;;;;;;;8.13;3.90;;;;;;;-3.19;96.29;100528.14;1719693;83;21031;-72
2021/11/23 03:50:18;;;;;;;7.58;3.85;;;;;;;-3.21;96.32;100516.06;1719854;83;21524;-72
2021/11/23 03:52:46;;;;;;;8.58;3.37;;;;;;;-3.24;96.61;100510.84;1719738;83;21914;-70
2021/11/23 03:55:17;;;;;;;10.82;4.12;;;;;;;-3.25;96.80;100517.67;1685073;85;21119;-71
2021/11/23 03:57:45;;;;;;;10.45;4.00;;;;;;;-3.25;97.27;100522.82;1678022;84;21038;-72
2021/11/23 04:00:14;;;;;;;8.35;4.00;;;;;;;-3.29;96.89;100518.45;1724648;83;21049;-74
2021/11/23 04:02:42;;;;;;;10.03;4.37;;;;;;;-3.29;97.09;100512.02;1725395;82;21552;-76
2021/11/23 04:05:09;;;;;;;6.92;3.25;;;;;;;-3.34;97.07;100516.15;1690217;84;21110;-76
2021/11/23 04:07:40;;;;;;;9.70;4.05;;;;;;;-3.37;96.93;100516.09;1683271;84;21878;-76
2021/11/23 04:10:11;;;;;;;10.80;5.25;;;;;;;-3.36;97.20;100513.95;1669629;85;21682;-74
2021/11/23 04:12:38;;;;;;;57.40;24.10;;;;;;;-3.38;97.12;100514.36;1698088;84;21104;-73
2021/11/23 04:15:07;;;;;;;61.75;29.52;;;;;;;-3.43;96.93;100509.09;1683284;84;21643;-70
2021/11/23 04:17:35;;;;;;;45.78;22.50;;;;;;;-3.49;96.86;100510.20;1694496;83;21016;-71
2021/11/23 04:20:06;;;;;;;33.60;17.50;;;;;;;-3.55;96.69;100511.75;1693353;83;21759;-67
2021/11/23 04:22:34;;;;;;;25.75;13.18;;;;;;;-3.56;97.00;100519.03;1693306;84;21169;-67
2021/11/23 04:25:00;;;;;;;15.18;8.10;;;;;;;-3.60;96.99;100521.92;1681954;84;21356;-66
2021/11/23 04:27:28;;;;;;;11.93;5.60;;;;;;;-3.67;96.78;100523.45;1682061;84;21118;-67
2021/11/23 04:29:55;;;;;;;11.22;5.42;;;;;;;-3.68;97.27;100520.44;1683313;84;21049;-66
2021/11/23 04:32:22;;;;;;;13.40;5.50;;;;;;;-3.68;97.21;100526.88;1698813;84;21551;-67
2021/11/23 04:34:49;;;;;;;11.25;3.80;;;;;;;-3.67;97.52;100528.61;1698857;84;21073;-67
2021/11/23 04:37:15;;;;;;;13.62;4.15;;;;;;;-3.68;97.50;100524.30;1672024;84;21058;-67
2021/11/23 04:39:43;;;;;;;14.15;4.65;;;;;;;-3.72;97.33;100523.77;1669897;84;21046;-68
2021/11/23 04:42:12;;;;;;;10.68;4.53;;;;;;;-3.73;97.87;100518.14;1694126;84;21053;-70
2021/11/23 04:44:39;;;;;;;11.12;4.40;;;;;;;-3.74;97.77;100515.55;1672167;84;21130;-67
2021/11/23 04:47:06;;;;;;;7.97;3.83;;;;;;;-3.80;97.72;100506.83;1687986;84;21002;-67
2021/11/23 04:49:34;;;;;;;9.48;4.30;;;;;;;-3.85;97.49;100508.39;1700099;84;20989;-67
2021/11/23 04:52:00;;;;;;;8.73;3.92;;;;;;;-3.93;97.33;100506.45;1699627;84;21125;-68
2021/11/23 04:54:27;;;;;;;12.53;6.75;;;;;;;-3.99;97.55;100503.70;1699213;84;21068;-68
2021/11/23 04:56:55;;;;;;;35.58;18.05;;;;;;;-4.03;97.62;100504.02;1672825;84;21153;-67
2021/11/23 04:59:22;;;;;;;33.30;18.42;;;;;;;-4.06;97.45;100513.81;1659651;85;21098;-67
2021/11/23 05:01:50;;;;;;;15.72;6.42;;;;;;;-4.07;97.86;100504.37;1691247;83;21030;-66
2021/11/23 05:04:17;;;;;;;17.92;8.98;;;;;;;-4.10;97.91;100504.26;1706141;83;21085;-66
2021/11/23 05:06:44;;;;;;;25.60;12.53;;;;;;;-4.09;98.59;100500.02;1713430;83;21053;-67
2021/11/23 05:09:11;;;;;;;20.08;9.60;;;;;;;-4.11;99.15;100497.39;1709175;83;21151;-68
2021/11/23 05:11:42;;;;;;;37.05;17.27;;;;;;;-4.13;99.58;100492.61;1715742;83;21038;-67
2021/11/23 05:14:08;;;;;;;18.60;10.17;;;;;;;-4.13;99.89;100496.47;1715494;83;21076;-67
2021/11/23 05:16:35;;;;;;;21.52;10.70;;;;;;;-4.17;99.73;100498.48;1681045;85;21123;-67
2021/11/23 05:19:02;;;;;;;16.07;8.78;;;;;;;-4.21;99.89;100497.94;1656897;86;21074;-67
2021/11/23 05:21:28;;;;;;;12.63;6.47;;;;;;;-4.23;100.00;100501.77;1715703;83;21148;-67
2021/11/23 05:23:55;;;;;;;17.75;5.37;;;;;;;-4.26;100.00;100498.23;1715615;83;21318;-67
2021/11/23 05:26:22;;;;;;;15.18;6.03;;;;;;;-4.27;100.00;100499.93;1715661;83;21040;-68
2021/11/23 05:28:48;;;;;;;12.20;6.90;;;;;;;-4.29;100.00;100504.58;1716144;83;21549;-67
2021/11/23 05:31:15;;;;;;;17.63;7.73;;;;;;;-4.27;100.00;100506.78;1718271;83;21061;-67
2021/11/23 05:33:42;;;;;;;13.80;6.45;;;;;;;-4.25;100.00;100506.42;1718184;83;21128;-67
2021/11/23 05:36:08;;;;;;;17.02;4.95;;;;;;;-4.27;100.00;100506.36;1716978;82;21029;-66
2021/11/23 05:38:35;;;;;;;17.55;5.03;;;;;;;-4.26;100.00;100514.94;1717449;82;21280;-67
2021/11/23 05:41:01;;;;;;;13.72;4.50;;;;;;;-4.30;100.00;100510.53;1717549;83;21556;-67
2021/11/23 05:43:28;;;;;;;18.35;4.83;;;;;;;-4.33;100.00;100519.03;1702544;83;21041;-68
2021/11/23 05:45:55;;;;;;;13.50;4.30;;;;;;;-4.34;100.00;100516.44;1701753;83;21125;-67
2021/11/23 05:48:22;;;;;;;10.85;4.90;;;;;;;-4.35;100.00;100519.39;1713369;83;21101;-68
2021/11/23 05:50:48;;;;;;;15.88;5.03;;;;;;;-4.33;100.00;100529.31;1714474;83;21034;-67
2021/11/23 05:53:15;;;;;;;21.90;5.45;;;;;;;-4.30;100.00;100541.39;1716955;82;21389;-68
2021/11/23 05:55:42;;;;;;;8.35;4.37;;;;;;;-4.29;100.00;100538.01;1713920;83;21046;-67
2021/11/23 05:58:09;;;;;;;8.18;3.47;;;;;;;-4.26;100.00;100534.23;1715447;83;22152;-67
2021/11/23 06:00:36;;;;;;;7.90;4.25;;;;;;;-4.26;100.00;100535.52;1758554;80;21096;-67
2021/11/23 06:03:03;;;;;;;18.42;5.65;;;;;;;-4.19;100.00;100537.44;1772163;80;21081;-66
2021/11/23 06:05:30;;;;;;;8.03;3.80;;;;;;;-4.18;100.00;100544.34;1767526;80;21041;-67
2021/11/23 06:07:57;;;;;;;10.75;4.90;;;;;;;-4.15;100.00;100558.56;1763572;80;21053;-67
2021/11/23 06:10:24;;;;;;;10.43;4.58;;;;;;;-4.11;100.00;100555.27;1772580;80;21101;-66
2021/11/23 06:12:51;;;;;;;12.15;4.62;;;;;;;-3.95;100.00;100566.00;1770990;80;21906;-67
2021/11/23 06:15:21;;;;;;;12.07;4.83;;;;;;;-3.88;100.00;100561.48;1772107;80;21089;-67
2021/11/23 06:17:55;;;;;;;12.70;4.95;;;;;;;-3.78;100.00;100566.05;1771971;80;21738;-67
2021/11/23 06:20:17;;;;;;;9.98;4.80;;;;;;;-3.68;100.00;100575.79;1769601;80;21070;-67
2021/11/23 06:22:45;;;;;;;9.35;5.37;;;;;;;-3.61;100.00;100578.12;1769759;80;21147;-67
2021/11/23 06:25:11;;;;;;;11.97;4.67;;;;;;;-3.54;100.00;100580.42;1760173;80;21022;-67
2021/11/23 06:27:38;;;;;;;12.55;5.60;;;;;;;-3.49;100.00;100585.30;1755408;80;22322;-68
2021/11/23 06:30:07;;;;;;;14.23;5.70;;;;;;;-3.25;100.00;100585.93;1748254;80;21322;-70
2021/11/23 06:32:35;;;;;;;22.13;6.58;;;;;;;-2.73;100.00;100588.97;1771920;80;21037;-70
2021/11/23 06:35:03;;;;;;;26.05;6.70;;;;;;;-2.41;100.00;100587.14;1771560;80;21134;-69
2021/11/23 06:37:30;;;;;;;25.43;11.40;;;;;;;-2.28;100.00;100591.27;1762880;80;21555;-70
2021/11/23 06:39:56;;;;;;;62.50;12.10;;;;;;;-2.21;100.00;100591.86;1758462;80;21548;-70
2021/11/23 06:42:23;;;;;;;17.65;9.28;;;;;;;-2.10;99.71;100594.27;1737604;82;21675;-68
2021/11/23 06:44:51;;;;;;;19.70;9.03;;;;;;;-1.99;99.13;100597.95;1741816;82;21700;-70
2021/11/23 06:47:21;;;;;;;22.02;11.18;;;;;;;-1.87;98.29;100598.62;1741533;82;21945;-70
2021/11/23 06:49:49;;;;;;;36.33;17.50;;;;;;;-1.77;98.08;100595.80;1750809;81;21038;-70
2021/11/23 06:52:15;;;;;;;40.10;16.90;;;;;;;-1.61;97.72;100595.30;1752147;81;21054;-71
2021/11/23 06:54:42;;;;;;;40.20;18.55;;;;;;;-1.48;97.07;100593.81;1741742;82;21109;-70
2021/11/23 06:57:11;;;;;;;39.65;15.75;;;;;;;-1.28;98.32;100598.07;1750088;81;21121;-70
2021/11/23 06:59:39;;;;;;;42.93;13.83;;;;;;;-0.99;98.00;100593.83;1758605;81;21383;-70
2021/11/23 07:02:07;;;;;;;32.90;16.75;;;;;;;-0.85;95.83;100598.84;1762473;81;21572;-71
2021/11/23 07:04:34;;;;;;;31.02;14.15;;;;;;;-0.80;94.52;100601.08;1752345;81;21994;-71
2021/11/23 07:07:01;;;;;;;33.78;12.95;;;;;;;-0.72;93.40;100594.72;1731002;82;22235;-70
2021/11/23 07:09:28;;;;;;;24.02;10.58;;;;;;;-0.67;91.85;100594.37;1732128;82;21010;-71
2021/11/23 07:11:56;;;;;;;33.13;12.35;;;;;;;-0.66;90.35;100598.71;1731993;82;21922;-70
2021/11/23 07:14:22;;;;;;;38.55;14.05;;;;;;;-0.62;90.01;100594.44;1731916;82;21619;-71
2021/11/23 07:16:51;;;;;;;43.13;14.10;;;;;;;-0.61;89.39;100597.49;1729710;81;21112;-70
2021/11/23 07:19:18;;;;;;;49.73;15.58;;;;;;;-0.55;88.42;100596.27;1748000;82;21500;-70
2021/11/23 07:21:45;;;;;;;60.10;13.58;;;;;;;-0.43;89.91;100596.48;1736533;82;21073;-70
2021/11/23 07:24:12;;;;;;;25.60;11.70;;;;;;;-0.29;88.67;100601.86;1734850;82;21122;-69
2021/11/23 07:26:39;;;;;;;38.10;13.58;;;;;;;-0.14;87.72;100597.31;1725361;82;21065;-71
2021/11/23 07:29:06;;;;;;;29.55;11.95;;;;;;;-0.01;87.84;100600.53;1713765;83;21053;-71
2021/11/23 07:31:33;;;;;;;32.35;12.70;;;;;;;0.03;85.69;100598.86;1713424;83;21073;-71
2021/11/23 07:34:00;;;;;;;30.55;11.57;;;;;;;0.09;86.39;100598.52;1736942;80;21520;-72
2021/11/23 07:36:27;;;;;;;40.52;13.85;;;;;;;0.23;87.93;100596.51;1728029;82;21135;-70
2021/11/23 07:38:55;;;;;;;43.40;15.05;;;;;;;0.38;86.37;100601.89;1714000;83;21082;-71
2021/11/23 07:41:22;;;;;;;30.65;12.53;;;;;;;0.49;88.62;100604.61;1713834;83;21088;-71
2021/11/23 07:43:50;;;;;;;30.72;13.80;;;;;;;0.53;86.20;100602.08;1714098;83;21096;-71
2021/11/23 07:46:17;;;;;;;25.12;11.83;;;;;;;0.59;84.74;100604.72;1718117;82;21114;-70
2021/11/23 07:48:45;;;;;;;40.80;13.08;;;;;;;0.59;84.30;100602.56;1705041;82;21134;-71
2021/11/23 07:51:13;;;;;;;42.45;16.80;;;;;;;0.63;83.06;100597.86;1723235;82;20978;-71
2021/11/23 07:53:40;;;;;;;34.92;14.98;;;;;;;0.68;82.97;100601.80;1736881;82;21092;-71
2021/11/23 07:56:06;;;;;;;36.28;16.87;;;;;;;0.66;82.36;100599.17;1744981;82;21113;-72
2021/11/23 07:58:33;;;;;;;53.98;17.45;;;;;;;0.72;81.40;100599.25;1749701;82;21037;-72
2021/11/23 08:01:00;;;;;;;49.27;14.43;;;;;;;0.77;82.61;100590.23;1743372;82;21093;-73
2021/11/23 08:03:27;;;;;;;50.17;15.10;;;;;;;0.89;81.22;100585.15;1741151;82;21097;-73
2021/11/23 08:05:54;;;;;;;49.48;15.23;;;;;;;1.12;81.36;100589.25;1741501;82;21640;-71
2021/11/23 08:08:20;;;;;;;50.15;14.40;;;;;;;1.36;79.76;100592.94;1711693;82;21072;-73
2021/11/23 08:10:47;;;;;;;52.55;14.75;;;;;;;2.74;78.17;100584.53;1705853;84;21551;-71
2021/11/23 08:13:13;;;;;;;50.92;15.55;;;;;;;2.74;78.17;100584.53;1705734;84;21140;-71
2021/11/23 08:15:40;;;;;;;43.60;14.53;;;;;;;3.57;75.11;100586.74;1728556;82;21095;-72
2021/11/23 08:18:08;;;;;;;80.85;16.50;;;;;;;4.33;72.78;100586.11;1729306;82;21042;-72
2021/11/23 08:20:35;;;;;;;30.92;11.70;;;;;;;4.87;68.67;100584.95;1716663;83;21565;-70
2021/11/23 08:23:03;;;;;;;30.27;12.85;;;;;;;5.09;64.09;100573.50;1714273;82;21058;-71
2021/11/23 08:25:30;;;;;;;29.85;10.70;;;;;;;5.40;60.47;100574.54;1724395;82;21041;-71
2021/11/23 08:27:57;;;;;;;35.85;12.68;;;;;;;5.85;61.98;100572.37;1736303;82;21585;-70
2021/11/23 08:30:23;;;;;;;37.98;17.60;;;;;;;6.64;58.49;100565.77;1733851;82;21054;-71
2021/11/23 08:32:50;;;;;;;49.18;20.10;;;;;;;7.26;55.73;100569.19;1723508;82;21089;-71
2021/11/23 08:35:18;;;;;;;49.08;19.42;;;;;;;7.59;52.34;100562.95;1738488;82;21063;-71
2021/11/23 08:37:44;;;;;;;36.48;14.98;;;;;;;7.45;49.18;100564.50;1719326;81;21481;-71
2021/11/23 08:40:11;;;;;;;40.63;20.45;;;;;;;7.44;49.77;100557.55;1725603;81;21105;-72
2021/11/23 08:42:38;;;;;;;50.78;24.10;;;;;;;7.44;46.33;100551.44;1721884;82;21052;-71
2021/11/23 08:45:07;;;;;;;59.93;26.15;;;;;;;7.50;47.61;100553.94;1718623;82;21093;-71
2021/11/23 08:47:35;;;;;;;55.03;24.43;;;;;;;7.82;47.80;100553.80;1731117;82;21049;-71
2021/11/23 08:50:03;;;;;;;71.15;26.48;;;;;;;8.39;46.13;100554.84;1719078;82;21122;-71
2021/11/23 08:52:32;;;;;;;63.92;25.75;;;;;;;9.01;46.63;100548.65;1727909;82;21040;-72
2021/11/23 08:54:59;;;;;;;57.70;28.23;;;;;;;9.14;42.83;100549.69;1719451;82;21180;-71
2021/11/23 08:57:27;;;;;;;50.08;24.63;;;;;;;9.15;43.41;100548.77;1723807;82;21093;-72
2021/11/23 09:00:09;;;;;;;65.03;25.15;;;;;;;9.12;43.52;100540.98;1720180;82;21432;-72
2021/11/23 09:02:24;;;;;;;50.50;23.98;;;;;;;8.88;41.67;100545.03;1726586;82;21148;-73
2021/11/23 09:04:51;;;;;;;62.93;25.32;;;;;;;8.36;43.09;100543.11;1724241;81;21262;-72
2021/11/23 09:07:21;;;;;;;76.50;28.23;;;;;;;7.93;44.75;100543.52;1719505;82;21540;-71
2021/11/23 09:09:48;;;;;;;59.30;26.57;;;;;;;7.64;44.22;100545.41;1719106;82;21096;-72
2021/11/23 09:12:15;;;;;;;68.85;28.47;;;;;;;7.32;47.80;100545.52;1727270;82;21175;-72
2021/11/23 09:14:42;;;;;;;79.32;30.05;;;;;;;7.35;46.36;100537.59;1686378;84;21165;-72
2021/11/23 09:17:10;;;;;;;55.30;25.12;;;;;;;7.44;48.60;100539.65;1670688;85;21097;-71
2021/11/23 09:19:38;;;;;;;55.48;22.70;;;;;;;7.29;46.15;100535.10;1719330;82;21051;-72
2021/11/23 09:22:05;;;;;;;46.45;21.33;;;;;;;6.98;45.68;100536.48;1728014;82;21081;-71
2021/11/23 09:24:33;;;;;;;134.12;59.60;;;;;;;6.61;47.23;100535.73;1725419;82;21097;-71
2021/11/23 09:26:59;;;;;;;70.28;27.80;;;;;;;6.38;46.85;100538.22;1716619;82;21487;-71
2021/11/23 09:29:26;;;;;;;66.28;25.75;;;;;;;6.08;48.61;100531.18;1725852;82;21073;-72
2021/11/23 09:31:52;;;;;;;70.78;28.00;;;;;;;5.75;50.30;100537.64;1719629;82;21553;-71
2021/11/23 09:34:22;;;;;;;72.85;28.80;;;;;;;5.53;49.20;100538.73;1726819;82;21080;-71
2021/11/23 09:36:48;;;;;;;93.03;31.17;;;;;;;5.17;49.91;100539.48;1726536;82;21614;-71
2021/11/23 09:39:14;;;;;;;93.92;35.45;;;;;;;4.71;50.53;100545.04;1725667;82;21616;-72
2021/11/23 09:41:41;;;;;;;96.25;34.00;;;;;;;4.46;53.36;100544.31;1711025;83;21022;-71
2021/11/23 09:44:10;;;;;;;116.15;37.85;;;;;;;4.33;54.38;100544.39;1729963;82;21129;-70
2021/11/23 09:46:38;;;;;;;89.45;36.15;;;;;;;4.13;53.09;100534.48;1730377;82;21013;-69
2021/11/23 09:49:06;;;;;;;85.20;29.10;;;;;;;3.80;57.34;100529.83;1688139;84;21120;-73
2021/11/23 09:51:35;;;;;;;61.45;25.37;;;;;;;3.46;56.43;100529.03;1715325;82;21200;-70
2021/11/23 09:54:05;;;;;;;69.75;28.73;;;;;;;3.12;56.12;100532.52;1720024;82;21089;-69
2021/11/23 09:56:35;;;;;;;70.03;26.25;;;;;;;2.89;57.74;100529.05;1716771;83;21081;-69
2021/11/23 09:59:02;;;;;;;62.62;24.57;;;;;;;2.60;57.43;100532.50;1728093;82;21037;-70
2021/11/23 10:01:31;;;;;;;67.75;25.17;;;;;;;2.44;59.05;100527.69;1732429;82;21128;-70
2021/11/23 10:04:04;;;;;;;63.50;25.02;;;;;;;2.28;59.51;100520.72;1719889;82;21225;-68
2021/11/23 10:06:27;;;;;;;47.48;21.48;;;;;;;2.13;59.59;100523.25;1721061;82;21616;-71
2021/11/23 10:08:56;;;;;;;57.83;23.55;;;;;;;2.04;63.12;100524.08;1730062;82;21060;-71
2021/11/23 10:11:30;;;;;;;53.98;22.70;;;;;;;1.96;61.57;100521.90;1731196;82;21632;-70
2021/11/23 10:14:05;;;;;;;66.05;21.23;;;;;;;1.92;64.67;100525.34;1726775;83;21062;-70
2021/11/23 10:16:44;;;;;;;48.00;19.98;;;;;;;1.88;64.63;100517.95;1727010;82;21286;-68
2021/11/23 10:19:13;;;;;;;46.92;21.45;;;;;;;1.86;62.99;100519.27;1741153;82;21009;-69
2021/11/23 10:21:50;;;;;;;50.00;19.27;;;;;;;1.83;63.56;100510.57;1704362;84;21102;-70
2021/11/23 10:24:18;;;;;;;58.70;19.70;;;;;;;1.89;62.95;100513.20;1735074;82;21580;-68
2021/11/23 10:26:45;;;;;;;94.25;23.70;;;;;;;2.02;63.44;100507.17;1714776;82;21084;-68
2021/11/23 10:29:12;;;;;;;49.60;20.43;;;;;;;2.27;64.49;100495.14;1700301;84;22190;-66
2021/11/23 10:31:42;;;;;;;52.30;20.80;;;;;;;2.27;64.49;100495.14;1739629;82;21030;-69
2021/11/23 10:34:19;;;;;;;46.45;20.72;;;;;;;2.55;64.89;100495.63;1741448;82;21043;-69
2021/11/23 10:36:48;;;;;;;45.50;18.57;;;;;;;2.73;61.50;100495.22;1734124;82;21061;-66
2021/11/23 10:39:22;;;;;;;44.90;20.82;;;;;;;2.77;62.20;100491.34;1705833;84;21063;-68
2021/11/23 10:41:52;;;;;;;54.70;20.43;;;;;;;2.72;60.37;100493.49;1735162;82;21146;-68
2021/11/23 10:44:23;;;;;;;46.77;19.20;;;;;;;2.61;61.58;100492.61;1698514;84;21027;-68
2021/11/23 10:46:56;;;;;;;40.35;19.15;;;;;;;2.52;61.22;100497.80;1727396;82;21679;-68
2021/11/23 10:49:33;;;;;;;41.83;18.23;;;;;;;2.43;62.06;100490.84;1732428;82;21058;-68
2021/11/23 10:52:00;;;;;;;47.55;19.80;;;;;;;2.45;62.76;100471.36;1726038;82;21113;-68
2021/11/23 10:54:31;;;;;;;40.10;17.62;;;;;;;2.55;62.27;100470.49;1740976;82;21143;-68
2021/11/23 10:57:03;;;;;;;40.98;17.23;;;;;;;2.60;61.79;100468.80;1735935;82;21050;-68
2021/11/23 10:59:30;;;;;;;36.17;16.80;;;;;;;2.56;61.77;100467.05;1740335;82;21050;-68
2021/11/23 11:01:57;;;;;;;34.23;16.73;;;;;;;2.56;62.82;100465.74;1741509;82;21154;-68
2021/11/23 11:04:26;;;;;;;39.27;16.23;;;;;;;2.61;63.60;100469.21;1705507;84;21090;-68
2021/11/23 11:06:56;;;;;;;41.15;17.32;;;;;;;2.61;65.83;100462.70;1741507;82;21125;-68
2021/11/23 11:09:25;;;;;;;42.33;16.97;;;;;;;2.61;65.41;100466.61;1729391;82;22077;-68
2021/11/23 11:11:53;;;;;;;31.87;15.90;;;;;;;2.59;66.70;100464.88;1740592;82;21049;-68
2021/11/23 11:14:20;;;;;;;34.53;16.32;;;;;;;2.55;68.23;100468.33;1707549;82;21071;-69
2021/11/23 11:16:48;;;;;;;34.45;15.90;;;;;;;2.52;67.21;100469.20;1704865;82;21794;-69
2021/11/23 11:19:16;;;;;;;31.50;15.53;;;;;;;2.45;66.34;100462.27;1741032;82;21579;-69